createdAt,value
2023-10-13T00:02:05.836Z,4.85
2023-10-13T00:04:36.635Z,4.47
2023-10-13T00:07:24.879Z,4.88
2023-10-13T00:10:11.170Z,5.55
2023-10-13T00:12:39.081Z,4.35
2023-10-13T00:15:14.645Z,4.45
2023-10-13T00:17:43.002Z,4.25
2023-10-13T00:20:33.642Z,4.47
2023-10-13T00:23:00.672Z,4.75
2023-10-13T00:25:32.877Z,5.18
2023-10-13T00:28:02.435Z,4.40
2023-10-13T00:30:34.998Z,5.20
2023-10-13T00:33:02.225Z,5.00
2023-10-13T00:35:36.795Z,4.95
2023-10-13T00:38:18.173Z,5.22
2023-10-13T00:40:53.374Z,4.95
2023-10-13T00:43:22.562Z,4.60
2023-10-13T00:45:58.697Z,4.45
2023-10-13T00:48:35.381Z,4.80
2023-10-13T00:51:19.220Z,4.28
2023-10-13T00:53:48.444Z,4.32
2023-10-13T00:56:28.249Z,4.32
2023-10-13T00:59:00.416Z,4.50
2023-10-13T01:01:33.994Z,4.70
2023-10-13T01:04:03.442Z,3.72
2023-10-13T01:06:31.838Z,4.28
2023-10-13T01:09:20.112Z,4.57
2023-10-13T01:11:53.282Z,5.03
2023-10-13T01:14:21.849Z,4.50
2023-10-13T01:16:53.835Z,3.72
2023-10-13T01:19:25.919Z,4.78
2023-10-13T01:22:03.896Z,4.00
2023-10-13T01:24:38.288Z,4.00
2023-10-13T01:27:19.057Z,4.38
2023-10-13T01:29:52.043Z,4.40
2023-10-13T01:32:22.459Z,4.65
2023-10-13T01:34:51.165Z,3.75
2023-10-13T01:37:20.507Z,4.25
2023-10-13T01:39:49.088Z,3.78
2023-10-13T01:42:22.822Z,4.22
2023-10-13T01:44:50.151Z,4.43
2023-10-13T01:47:17.869Z,4.50
2023-10-13T01:49:48.714Z,4.22
2023-10-13T01:52:17.326Z,4.00
2023-10-13T01:54:49.947Z,3.88
2023-10-13T01:57:19.917Z,3.83
2023-10-13T01:59:51.051Z,4.22
2023-10-13T02:02:31.272Z,3.75
2023-10-13T02:05:02.348Z,4.05
2023-10-13T02:07:35.559Z,4.60
2023-10-13T02:10:06.523Z,4.20
2023-10-13T02:15:22.887Z,3.88
2023-10-13T02:17:53.200Z,3.90
2023-10-13T02:22:51.559Z,3.75
2023-10-13T02:25:39.045Z,4.22
2023-10-13T02:28:14.600Z,3.78
2023-10-13T02:30:46.052Z,3.22
2023-10-13T02:33:14.737Z,3.75
2023-10-13T02:35:42.579Z,3.55
2023-10-13T02:38:12.784Z,3.85
2023-10-13T02:40:40.437Z,2.78
2023-10-13T02:43:07.759Z,4.05
2023-10-13T02:45:38.062Z,3.05
2023-10-13T02:48:14.898Z,3.40
2023-10-13T02:50:46.855Z,3.50
2023-10-13T02:53:13.870Z,3.33
2023-10-13T02:55:53.720Z,2.63
2023-10-13T02:58:21.888Z,3.05
2023-10-13T03:00:49.547Z,3.33
2023-10-13T03:03:19.685Z,2.88
2023-10-13T03:05:47.240Z,2.88
2023-10-13T03:08:19.133Z,2.63
2023-10-13T03:10:49.537Z,2.63
2023-10-13T03:13:16.625Z,2.70
2023-10-13T03:15:48.570Z,2.95
2023-10-13T03:18:19.535Z,3.30
2023-10-13T03:20:51.396Z,2.75
2023-10-13T03:23:18.500Z,2.67
2023-10-13T03:25:50.714Z,2.63
2023-10-13T03:28:24.982Z,2.45
2023-10-13T03:30:54.179Z,3.00
2023-10-13T03:33:27.528Z,2.90
2023-10-13T03:35:55.470Z,2.90
2023-10-13T03:38:28.114Z,3.80
2023-10-13T03:41:09.228Z,2.72
2023-10-13T03:43:53.806Z,3.42
2023-10-13T03:46:23.167Z,3.53
2023-10-13T03:48:53.907Z,3.03
2023-10-13T03:51:21.485Z,3.10
2023-10-13T03:53:55.239Z,3.67
2023-10-13T03:56:39.963Z,4.03
2023-10-13T03:59:20.149Z,3.92
2023-10-13T04:01:59.808Z,3.45
2023-10-13T04:04:33.326Z,3.38
2023-10-13T04:07:06.568Z,3.75
2023-10-13T04:09:33.542Z,3.50
2023-10-13T04:12:05.936Z,3.55
2023-10-13T04:14:53.523Z,3.40
2023-10-13T04:17:24.087Z,3.63
2023-10-13T04:20:08.950Z,3.58
2023-10-13T04:22:50.212Z,3.42
2023-10-13T04:25:43.348Z,3.50
2023-10-13T04:28:16.822Z,3.75
2023-10-13T04:30:59.304Z,3.20
2023-10-13T04:33:37.092Z,3.83
2023-10-13T04:36:37.180Z,3.63
2023-10-13T04:39:04.892Z,3.28
2023-10-13T04:41:46.549Z,3.65
2023-10-13T04:44:38.234Z,3.60
2023-10-13T04:47:05.394Z,3.28
2023-10-13T04:49:43.835Z,3.55
2023-10-13T04:52:11.532Z,3.10
2023-10-13T04:54:50.612Z,3.00
2023-10-13T04:57:23.889Z,3.35
2023-10-13T05:00:10.621Z,2.92
2023-10-13T05:03:05.097Z,3.17
2023-10-13T05:05:50.948Z,3.65
2023-10-13T05:08:36.556Z,3.13
2023-10-13T05:11:40.616Z,2.80
2023-10-13T05:14:26.082Z,3.40
2023-10-13T05:17:30.245Z,3.00
2023-10-13T05:20:17.960Z,3.13
2023-10-13T05:23:03.534Z,3.10
2023-10-13T05:25:48.830Z,3.38
2023-10-13T05:28:35.810Z,3.15
2023-10-13T05:31:40.288Z,3.60
2023-10-13T05:34:25.737Z,2.95
2023-10-13T05:37:29.671Z,2.92
2023-10-13T05:40:33.559Z,3.40
2023-10-13T05:43:18.889Z,3.00
2023-10-13T05:46:24.188Z,3.40
2023-10-13T05:49:00.361Z,3.00
2023-10-13T05:51:34.509Z,3.65
2023-10-13T05:54:17.045Z,2.90
2023-10-13T05:57:10.419Z,3.55
2023-10-13T05:59:57.383Z,3.00
2023-10-13T06:02:44.036Z,3.35
2023-10-13T06:05:32.068Z,3.42
2023-10-13T06:08:18.013Z,3.35
2023-10-13T06:11:04.345Z,2.83
2023-10-13T06:13:49.937Z,3.47
2023-10-13T06:16:37.009Z,3.33
2023-10-13T06:19:23.296Z,3.50
2023-10-13T06:22:08.981Z,3.05
2023-10-13T06:24:54.471Z,3.30
2023-10-13T06:27:39.797Z,3.42
2023-10-13T06:30:07.573Z,3.03
2023-10-13T06:32:34.782Z,3.15
2023-10-13T06:35:07.650Z,2.90
2023-10-13T06:37:35.313Z,3.83
2023-10-13T06:40:26.981Z,3.03
2023-10-13T06:42:56.223Z,3.30
2023-10-13T06:45:23.245Z,3.13
2023-10-13T06:47:54.675Z,4.32
2023-10-13T06:50:25.354Z,3.38
2023-10-13T06:55:29.848Z,3.42
2023-10-13T06:58:01.422Z,3.67
2023-10-13T07:00:35.567Z,3.65
2023-10-13T07:03:19.079Z,3.75
2023-10-13T07:05:49.420Z,3.60
2023-10-13T07:08:24.984Z,3.40
2023-10-13T07:11:09.380Z,2.95
2023-10-13T07:13:39.414Z,3.33
2023-10-13T07:16:16.402Z,4.15
2023-10-13T07:18:56.434Z,3.40
2023-10-13T07:21:32.108Z,3.70
2023-10-13T07:24:09.188Z,3.65
2023-10-13T07:26:44.059Z,3.22
2023-10-13T07:29:11.972Z,3.92
2023-10-13T07:31:41.630Z,3.10
2023-10-13T07:34:14.055Z,4.65
2023-10-13T07:36:44.399Z,3.47
2023-10-13T07:39:24.972Z,3.20
2023-10-13T07:42:04.634Z,3.22
2023-10-13T07:44:34.783Z,3.58
2023-10-13T07:47:08.677Z,3.50
2023-10-13T07:49:40.807Z,3.40
2023-10-13T07:52:28.183Z,3.10
2023-10-13T07:55:00.839Z,3.45
2023-10-13T07:57:30.622Z,2.88
2023-10-13T08:00:26.659Z,3.38
2023-10-13T08:03:29.582Z,3.17
2023-10-13T08:06:11.791Z,3.17
2023-10-13T08:08:39.795Z,3.00
2023-10-13T08:11:25.656Z,3.50
2023-10-13T08:14:22.379Z,3.97
2023-10-13T08:17:04.910Z,3.08
2023-10-13T08:19:41.618Z,3.05
2023-10-13T08:22:19.437Z,2.70
2023-10-13T08:24:51.383Z,2.75
2023-10-13T08:27:57.552Z,2.60
2023-10-13T08:30:27.868Z,2.80
2023-10-13T08:35:36.607Z,2.60
2023-10-13T08:38:29.156Z,2.35
2023-10-13T08:41:16.413Z,3.03
2023-10-13T08:43:52.582Z,2.65
2023-10-13T08:46:31.312Z,2.60
2023-10-13T08:49:15.930Z,2.63
2023-10-13T08:51:47.876Z,2.92
2023-10-13T08:54:35.304Z,3.00
2023-10-13T08:57:34.281Z,3.10
2023-10-13T09:00:21.547Z,2.30
2023-10-13T09:03:01.092Z,2.75
2023-10-13T09:05:59.882Z,2.43
2023-10-13T09:08:46.641Z,2.53
2023-10-13T09:11:14.370Z,2.33
2023-10-13T09:13:53.163Z,2.33
2023-10-13T09:16:40.333Z,2.95
2023-10-13T09:19:07.381Z,2.65
2023-10-13T09:21:41.161Z,2.90
2023-10-13T09:24:23.981Z,2.60
2023-10-13T09:26:56.981Z,2.60
2023-10-13T09:29:25.368Z,2.40
2023-10-13T09:32:05.459Z,2.80
2023-10-13T09:34:35.969Z,2.90
2023-10-13T09:37:07.438Z,3.13
2023-10-13T09:39:49.439Z,2.47
2023-10-13T09:42:19.265Z,2.22
2023-10-13T09:44:56.822Z,2.67
2023-10-13T09:47:31.506Z,2.88
2023-10-13T09:50:07.092Z,2.65
2023-10-13T09:52:34.931Z,2.20
2023-10-13T09:55:22.585Z,2.63
2023-10-13T09:58:00.403Z,2.63
2023-10-13T10:00:42.163Z,2.20
2023-10-13T10:03:28.109Z,2.35
2023-10-13T10:06:07.009Z,2.20
2023-10-13T10:08:36.090Z,2.53
2023-10-13T10:11:35.365Z,2.63
2023-10-13T10:14:02.278Z,3.00
2023-10-13T10:17:11.896Z,1.90
2023-10-13T10:19:57.810Z,1.80
2023-10-13T10:22:40.609Z,2.10
2023-10-13T10:25:08.879Z,2.60
2023-10-13T10:27:36.545Z,2.13
2023-10-13T10:30:06.646Z,2.03
2023-10-13T10:32:45.403Z,1.70
2023-10-13T10:35:16.329Z,2.60
2023-10-13T10:37:49.871Z,2.70
2023-10-13T10:40:38.543Z,1.90
2023-10-13T10:43:25.572Z,2.38
2023-10-13T10:46:03.585Z,2.30
2023-10-13T10:48:35.177Z,1.77
2023-10-13T10:51:07.990Z,1.92
2023-10-13T10:53:45.217Z,2.22
2023-10-13T10:56:26.948Z,2.03
2023-10-13T10:59:01.272Z,2.25
2023-10-13T11:01:48.084Z,2.15
2023-10-13T11:04:19.373Z,2.25
2023-10-13T11:06:57.559Z,2.15
2023-10-13T11:09:32.020Z,2.30
2023-10-13T11:12:15.065Z,2.83
2023-10-13T11:14:47.851Z,2.20
2023-10-13T11:17:34.377Z,2.40
2023-10-13T11:20:17.626Z,2.72
2023-10-13T11:22:49.312Z,2.47
2023-10-13T11:25:31.306Z,2.10
2023-10-13T11:28:00.385Z,2.80
2023-10-13T11:30:41.887Z,2.33
2023-10-13T11:33:11.748Z,2.33
2023-10-13T11:35:53.967Z,1.95
2023-10-13T11:38:29.513Z,2.42
2023-10-13T11:41:05.805Z,2.47
2023-10-13T11:43:41.195Z,2.15
2023-10-13T11:46:10.740Z,2.05
2023-10-13T11:48:38.959Z,2.15
2023-10-13T11:51:18.526Z,2.55
2023-10-13T11:53:52.899Z,2.70
2023-10-13T11:56:25.267Z,2.35
2023-10-13T11:58:52.862Z,2.40
2023-10-13T12:01:20.071Z,2.67
2023-10-13T12:04:10.049Z,2.03
2023-10-13T12:06:37.634Z,2.60
2023-10-13T12:09:21.304Z,2.50
2023-10-13T12:11:55.407Z,2.60
2023-10-13T12:14:22.570Z,2.60
2023-10-13T12:16:51.720Z,2.15
2023-10-13T12:19:30.205Z,2.63
2023-10-13T12:22:05.162Z,2.90
2023-10-13T12:24:41.105Z,2.72
2023-10-13T12:31:28.279Z,2.90
2023-10-13T12:33:58.850Z,2.75
2023-10-13T12:36:32.436Z,2.55
2023-10-13T12:39:08.093Z,2.60
2023-10-13T12:41:53.849Z,3.20
2023-10-13T12:44:39.238Z,2.20
2023-10-13T12:47:27.013Z,2.60
2023-10-13T12:49:59.461Z,2.50
2023-10-13T12:52:27.119Z,2.35
2023-10-13T12:54:57.628Z,2.95
2023-10-13T12:57:29.435Z,2.50
2023-10-13T12:59:56.902Z,2.33
2023-10-13T13:02:28.080Z,2.53
2023-10-13T13:05:02.903Z,2.20
2023-10-13T13:07:30.704Z,2.85
2023-10-13T13:10:01.084Z,2.85
2023-10-13T13:12:31.577Z,2.80
2023-10-13T13:14:58.676Z,2.80
2023-10-13T13:17:25.845Z,2.70
2023-10-13T13:19:53.012Z,2.78
2023-10-13T13:22:21.735Z,2.58
2023-10-13T13:24:48.789Z,2.30
2023-10-13T13:27:23.351Z,2.80
2023-10-13T13:29:50.489Z,2.38
2023-10-13T13:32:24.979Z,2.67
2023-10-13T13:34:59.876Z,2.85
2023-10-13T13:37:30.573Z,2.47
2023-10-13T13:40:03.261Z,2.70
2023-10-13T13:42:37.605Z,2.35
2023-10-13T13:45:09.717Z,2.80
2023-10-13T13:47:36.792Z,2.30
2023-10-13T13:50:15.628Z,2.70
2023-10-13T13:52:47.114Z,2.30
2023-10-13T13:55:18.328Z,2.70
2023-10-13T13:57:45.586Z,2.30
2023-10-13T14:00:38.003Z,2.33
2023-10-13T14:03:14.196Z,2.42
2023-10-13T14:05:44.794Z,2.60
2023-10-13T14:08:16.148Z,2.95
2023-10-13T14:11:12.620Z,2.15
2023-10-13T14:13:53.570Z,2.70
2023-10-13T14:16:26.778Z,1.85
2023-10-13T14:18:54.023Z,2.75
2023-10-13T14:21:25.139Z,2.65
2023-10-13T14:23:54.723Z,2.13
2023-10-13T14:26:31.389Z,2.30
2023-10-13T14:29:02.928Z,2.80
2023-10-13T14:31:31.324Z,2.78
2023-10-13T14:33:59.001Z,2.30
2023-10-13T14:36:29.665Z,3.25
2023-10-13T14:38:58.099Z,2.22
2023-10-13T14:41:25.314Z,2.28
2023-10-13T14:43:52.400Z,2.67
2023-10-13T14:46:24.465Z,1.95
2023-10-13T14:48:55.357Z,2.38
2023-10-13T14:51:22.428Z,2.13
2023-10-13T14:53:52.574Z,2.70
2023-10-13T14:56:21.277Z,2.28
2023-10-13T14:58:48.364Z,2.28
2023-10-13T15:01:25.664Z,2.38
2023-10-13T15:03:56.311Z,2.17
2023-10-13T15:06:31.638Z,1.73
2023-10-13T15:09:00.192Z,2.08
2023-10-13T15:11:44.168Z,2.67
2023-10-13T15:14:17.238Z,2.50
2023-10-13T15:16:45.203Z,2.20
2023-10-13T15:19:13.258Z,1.80
2023-10-13T15:21:41.324Z,1.90
2023-10-13T15:24:24.699Z,2.63
2023-10-13T15:27:01.925Z,1.95
2023-10-13T15:29:36.607Z,2.28
2023-10-13T15:32:04.976Z,2.08
2023-10-13T15:34:32.809Z,2.10
2023-10-13T15:37:01.695Z,2.28
2023-10-13T15:39:29.650Z,2.10
2023-10-13T15:42:00.399Z,2.10
2023-10-13T15:44:32.011Z,2.03
2023-10-13T15:49:35.185Z,2.42
2023-10-13T15:52:02.752Z,2.50
2023-10-13T15:54:29.906Z,1.92
2023-10-13T15:56:57.061Z,1.90
2023-10-13T15:59:24.614Z,1.80
2023-10-13T16:01:58.074Z,2.47
2023-10-13T16:04:25.495Z,2.00
2023-10-13T16:06:52.955Z,2.13
2023-10-13T16:09:24.656Z,1.85
2023-10-13T16:11:54.288Z,2.17
2023-10-13T16:14:22.903Z,2.10
2023-10-13T16:16:53.898Z,2.15
2023-10-13T16:19:24.025Z,2.30
2023-10-13T16:24:21.549Z,2.25
2023-10-13T16:26:56.076Z,2.20
2023-10-13T16:29:23.319Z,2.15
2023-10-13T16:31:50.418Z,2.33
2023-10-13T16:34:18.932Z,2.00
2023-10-13T16:36:47.940Z,2.22
2023-10-13T16:39:16.223Z,1.98
2023-10-13T16:41:46.634Z,2.38
2023-10-13T16:46:41.927Z,2.00
2023-10-13T16:49:09.853Z,1.92
2023-10-13T16:51:37.591Z,2.05
2023-10-13T16:54:05.995Z,2.40
2023-10-13T16:56:36.914Z,2.10
2023-10-13T16:59:06.298Z,1.77
2023-10-13T17:01:34.047Z,1.65
2023-10-13T17:04:01.481Z,2.05
2023-10-13T17:06:28.809Z,1.98
2023-10-13T17:08:57.044Z,2.00
2023-10-13T17:11:27.534Z,2.20
2023-10-13T17:13:54.591Z,1.95
2023-10-13T17:16:24.202Z,2.88
2023-10-13T17:18:53.082Z,2.22
2023-10-13T17:21:23.497Z,1.88
2023-10-13T17:23:52.482Z,1.83
2023-10-13T17:26:29.457Z,1.75
2023-10-13T17:28:59.709Z,2.05
2023-10-13T17:31:33.072Z,1.80
2023-10-13T17:34:00.967Z,1.63
2023-10-13T17:36:32.483Z,1.92
2023-10-13T17:39:02.199Z,1.80
2023-10-13T17:41:33.451Z,1.73
2023-10-13T17:44:03.193Z,1.90
2023-10-13T17:46:30.363Z,1.83
2023-10-13T17:48:57.709Z,1.60
2023-10-13T17:51:25.058Z,1.55
2023-10-13T17:53:53.724Z,1.85
2023-10-13T17:56:20.948Z,2.10
2023-10-13T17:58:48.188Z,1.63
2023-10-13T18:01:20.778Z,1.90
2023-10-13T18:03:50.514Z,1.70
2023-10-13T18:06:20.991Z,1.65
2023-10-13T18:11:20.300Z,1.88
2023-10-13T18:13:49.374Z,1.90
2023-10-13T18:16:21.899Z,1.77
2023-10-13T18:18:56.860Z,2.17
2023-10-13T18:21:24.587Z,1.90
2023-10-13T18:23:53.892Z,1.63
2023-10-13T18:26:20.993Z,1.70
2023-10-13T18:28:51.934Z,1.80
2023-10-13T18:31:19.188Z,1.70
2023-10-13T18:33:47.218Z,2.00
2023-10-13T18:36:25.299Z,1.58
2023-10-13T18:38:52.837Z,1.73
2023-10-13T18:41:20.470Z,1.90
2023-10-13T18:43:48.591Z,1.67
2023-10-13T18:46:17.767Z,1.88
2023-10-13T18:48:46.525Z,1.60
2023-10-13T18:51:19.906Z,1.55
2023-10-13T18:53:49.079Z,2.20
2023-10-13T18:56:21.660Z,2.10
2023-10-13T18:58:57.324Z,1.40
2023-10-13T19:01:30.486Z,1.77
2023-10-13T19:04:03.944Z,1.70
2023-10-13T19:06:34.225Z,1.70
2023-10-13T19:11:38.521Z,1.70
2023-10-13T19:14:11.304Z,1.50
2023-10-13T19:16:42.090Z,1.80
2023-10-13T19:19:09.452Z,1.60
2023-10-13T19:21:40.277Z,1.98
2023-10-13T19:24:07.889Z,1.92
2023-10-13T19:26:38.031Z,2.05
2023-10-13T19:31:35.578Z,1.77
2023-10-13T19:34:05.768Z,1.92
2023-10-13T19:36:34.374Z,1.83
2023-10-13T19:39:08.335Z,1.95
2023-10-13T19:41:38.047Z,1.70
2023-10-13T19:44:05.698Z,1.83
2023-10-13T19:46:38.290Z,1.90
2023-10-13T19:49:06.606Z,2.03
2023-10-13T19:51:35.019Z,1.30
2023-10-13T19:54:04.159Z,1.63
2023-10-13T19:56:33.328Z,2.25
2023-10-13T19:59:02.519Z,1.75
2023-10-13T20:01:35.138Z,1.38
2023-10-13T20:04:07.801Z,1.67
2023-10-13T20:06:35.769Z,1.70
2023-10-13T20:09:10.295Z,1.67
2023-10-13T20:11:38.455Z,1.50
2023-10-13T20:14:05.908Z,1.67
2023-10-13T20:16:32.929Z,1.40
2023-10-13T20:19:00.385Z,1.65
2023-10-13T20:21:29.292Z,1.80
2023-10-13T20:24:01.529Z,1.75
2023-10-13T20:26:42.877Z,1.67
2023-10-13T20:29:16.902Z,2.00
2023-10-13T20:31:49.732Z,2.05
2023-10-13T20:34:21.296Z,1.90
2023-10-13T20:36:48.449Z,2.17
2023-10-13T20:39:25.177Z,2.20
2023-10-13T20:41:53.470Z,1.83
2023-10-13T20:44:29.610Z,1.90
2023-10-13T20:46:57.969Z,1.70
2023-10-13T20:49:27.721Z,1.88
2023-10-13T20:51:55.180Z,1.77
2023-10-13T20:54:22.610Z,1.80
2023-10-13T20:56:49.713Z,1.48
2023-10-13T20:59:16.960Z,1.80
2023-10-13T21:01:45.418Z,1.42
2023-10-13T21:04:12.966Z,1.65
2023-10-13T21:06:42.004Z,1.55
2023-10-13T21:09:13.721Z,1.55
2023-10-13T21:11:42.006Z,2.28
2023-10-13T21:14:09.044Z,1.40
2023-10-13T21:16:36.045Z,1.58
2023-10-13T21:19:06.027Z,1.42
2023-10-13T21:21:34.896Z,1.40
2023-10-13T21:24:05.175Z,1.80
2023-10-13T21:26:32.362Z,1.65
2023-10-13T21:28:59.575Z,1.65
2023-10-13T21:31:28.092Z,2.08
2023-10-13T21:33:56.427Z,1.70
2023-10-13T21:36:28.275Z,1.45
2023-10-13T21:38:59.016Z,2.03
2023-10-13T21:41:26.314Z,1.80
2023-10-13T21:43:55.706Z,2.10
2023-10-13T21:46:27.287Z,1.93
2023-10-13T21:48:55.253Z,1.70
2023-10-13T21:51:26.053Z,1.75
2023-10-13T21:53:53.857Z,1.65
2023-10-13T21:56:29.283Z,1.38
2023-10-13T21:58:59.412Z,1.45
2023-10-13T22:01:30.023Z,1.45
2023-10-13T22:04:10.997Z,1.48
2023-10-13T22:06:47.051Z,1.60
2023-10-13T22:09:15.403Z,1.40
2023-10-13T22:11:42.529Z,2.17
2023-10-13T22:14:13.980Z,1.77
2023-10-13T22:16:42.268Z,1.90
2023-10-13T22:19:09.391Z,1.83
2023-10-13T22:21:38.101Z,2.00
2023-10-13T22:24:05.572Z,1.83
2023-10-13T22:26:32.620Z,2.03
2023-10-13T22:29:00.046Z,2.58
2023-10-13T22:31:27.569Z,1.83
2023-10-13T22:33:56.136Z,2.00
2023-10-13T22:36:24.189Z,2.13
2023-10-13T22:38:59.343Z,2.05
2023-10-13T22:41:30.429Z,2.35
2023-10-13T22:43:58.440Z,2.00
2023-10-13T22:46:26.023Z,2.00
2023-10-13T22:48:53.476Z,2.05
2023-10-13T22:51:21.855Z,1.70
2023-10-13T22:53:49.009Z,1.55
2023-10-13T22:56:19.346Z,1.85
2023-10-13T22:58:50.036Z,2.28
2023-10-13T23:01:19.570Z,2.30
2023-10-13T23:03:56.769Z,1.90
2023-10-13T23:06:31.422Z,2.08
2023-10-13T23:09:12.781Z,2.10
2023-10-13T23:11:40.539Z,1.98
2023-10-13T23:14:12.811Z,1.90
2023-10-13T23:16:40.125Z,2.08
2023-10-13T23:19:07.736Z,2.17
2023-10-13T23:21:39.347Z,2.30
2023-10-13T23:24:10.281Z,2.47
2023-10-13T23:26:37.344Z,2.17
2023-10-13T23:29:05.696Z,2.50
2023-10-13T23:31:33.100Z,2.15
2023-10-13T23:34:01.797Z,2.65
2023-10-13T23:36:31.984Z,3.10
2023-10-13T23:39:09.921Z,2.13
2023-10-13T23:41:41.892Z,1.98
2023-10-13T23:44:15.998Z,2.53
2023-10-13T23:46:46.483Z,2.00
2023-10-13T23:49:19.239Z,2.40
2023-10-13T23:51:51.366Z,2.10
2023-10-13T23:54:18.830Z,1.98
2023-10-13T23:56:49.328Z,2.75
2023-10-13T23:59:27.873Z,3.03
